Terminal Aerodrome Forecast
Issued by NWS

Home | Current Version | Previous Version | Graphics & Text | Print | Product List | Glossary On
Versions: 1 2 3 4 5 6 7 8 9 10 11 12 13 14 15 16
000
FTUS43 KIWX 232339
TAFSBN
TAF
KSBN 232339Z 2400/2424 15012KT P6SM OVC050
     FM240200 17012KT P6SM VCSH OVC035 WS020/19045KT
     FM240500 19014KT P6SM OVC080 WS020/22060KT
     FM241100 21014KT P6SM BKN100 WS020/24050KT
     FM241400 21018G26KT P6SM SCT020 BKN150
      TEMPO 2419/2423 BKN020
     FM242300 21012KT P6SM BKN015=

USA.gov is the U.S. government's official web portal to all federal, state and local government web resources and services.